sensor_id;sensor_type;location;lat;lon;timestamp;temperature;humidity
16964;DHT22;8598;50.508;10.436;2023-03-11T00:00:23;1.60;99.90
16964;DHT22;8598;50.508;10.436;2023-03-11T00:02:52;1.60;99.90
16964;DHT22;8598;50.508;10.436;2023-03-11T00:05:22;1.60;99.90
16964;DHT22;8598;50.508;10.436;2023-03-11T00:07:49;1.70;99.90
16964;DHT22;8598;50.508;10.436;2023-03-11T00:10:18;1.70;99.90
16964;DHT22;8598;50.508;10.436;2023-03-11T00:12:45;1.70;99.90
16964;DHT22;8598;50.508;10.436;2023-03-11T00:15:12;1.70;99.90
16964;DHT22;8598;50.508;10.436;2023-03-11T00:17:40;1.70;99.90
16964;DHT22;8598;50.508;10.436;2023-03-11T00:20:12;1.70;99.90
16964;DHT22;8598;50.508;10.436;2023-03-11T00:22:40;1.70;99.90
16964;DHT22;8598;50.508;10.436;2023-03-11T00:25:09;1.70;99.90
16964;DHT22;8598;50.508;10.436;2023-03-11T00:27:36;1.70;99.90
16964;DHT22;8598;50.508;10.436;2023-03-11T00:30:03;1.70;99.90
16964;DHT22;8598;50.508;10.436;2023-03-11T00:32:30;1.70;99.90
16964;DHT22;8598;50.508;10.436;2023-03-11T00:34:58;1.70;99.90
16964;DHT22;8598;50.508;10.436;2023-03-11T00:37:24;1.70;99.90
16964;DHT22;8598;50.508;10.436;2023-03-11T00:39:51;1.60;99.90
16964;DHT22;8598;50.508;10.436;2023-03-11T00:42:17;1.60;99.90
16964;DHT22;8598;50.508;10.436;2023-03-11T00:44:44;1.60;99.90
16964;DHT22;8598;50.508;10.436;2023-03-11T00:47:11;1.70;99.90
16964;DHT22;8598;50.508;10.436;2023-03-11T00:49:38;1.60;99.90
16964;DHT22;8598;50.508;10.436;2023-03-11T00:52:06;1.60;99.90
16964;DHT22;8598;50.508;10.436;2023-03-11T00:54:33;1.60;99.90
16964;DHT22;8598;50.508;10.436;2023-03-11T00:56:59;1.60;99.90
16964;DHT22;8598;50.508;10.436;2023-03-11T00:59:26;1.60;99.90
16964;DHT22;8598;50.508;10.436;2023-03-11T01:01:53;1.60;99.90
16964;DHT22;8598;50.508;10.436;2023-03-11T01:04:19;1.60;99.90
16964;DHT22;8598;50.508;10.436;2023-03-11T01:06:46;1.60;99.90
16964;DHT22;8598;50.508;10.436;2023-03-11T01:09:14;1.50;99.90
16964;DHT22;8598;50.508;10.436;2023-03-11T01:11:40;1.60;99.90
16964;DHT22;8598;50.508;10.436;2023-03-11T01:14:07;1.60;99.90
16964;DHT22;8598;50.508;10.436;2023-03-11T01:16:34;1.60;99.90
16964;DHT22;8598;50.508;10.436;2023-03-11T01:19:01;1.60;99.90
16964;DHT22;8598;50.508;10.436;2023-03-11T01:21:27;1.60;99.90
16964;DHT22;8598;50.508;10.436;2023-03-11T01:23:54;1.60;99.90
16964;DHT22;8598;50.508;10.436;2023-03-11T01:26:22;1.60;99.90
16964;DHT22;8598;50.508;10.436;2023-03-11T01:28:48;1.60;99.90
16964;DHT22;8598;50.508;10.436;2023-03-11T01:31:15;1.60;99.90
16964;DHT22;8598;50.508;10.436;2023-03-11T01:33:42;1.60;99.90
16964;DHT22;8598;50.508;10.436;2023-03-11T01:36:08;1.60;99.90
16964;DHT22;8598;50.508;10.436;2023-03-11T01:38:35;1.50;99.90
16964;DHT22;8598;50.508;10.436;2023-03-11T01:41:02;1.50;99.90
16964;DHT22;8598;50.508;10.436;2023-03-11T01:43:54;1.60;99.90
16964;DHT22;8598;50.508;10.436;2023-03-11T01:46:23;1.50;99.90
16964;DHT22;8598;50.508;10.436;2023-03-11T01:48:52;1.60;99.90
16964;DHT22;8598;50.508;10.436;2023-03-11T01:51:22;1.50;99.90
16964;DHT22;8598;50.508;10.436;2023-03-11T01:53:50;1.50;99.90
16964;DHT22;8598;50.508;10.436;2023-03-11T01:56:18;1.50;99.90
16964;DHT22;8598;50.508;10.436;2023-03-11T01:58:46;1.60;99.90
16964;DHT22;8598;50.508;10.436;2023-03-11T02:01:15;1.50;99.90
16964;DHT22;8598;50.508;10.436;2023-03-11T02:03:42;1.60;99.90
16964;DHT22;8598;50.508;10.436;2023-03-11T02:06:11;1.60;99.90
16964;DHT22;8598;50.508;10.436;2023-03-11T02:08:40;1.50;99.90
16964;DHT22;8598;50.508;10.436;2023-03-11T02:11:09;1.50;99.90
16964;DHT22;8598;50.508;10.436;2023-03-11T02:13:38;1.50;99.90
16964;DHT22;8598;50.508;10.436;2023-03-11T02:16:06;1.50;99.90
16964;DHT22;8598;50.508;10.436;2023-03-11T02:18:35;1.50;99.90
16964;DHT22;8598;50.508;10.436;2023-03-11T02:21:08;1.50;99.90
16964;DHT22;8598;50.508;10.436;2023-03-11T02:23:44;1.60;99.90
16964;DHT22;8598;50.508;10.436;2023-03-11T02:26:16;1.60;99.90
16964;DHT22;8598;50.508;10.436;2023-03-11T02:28:47;1.60;99.90
16964;DHT22;8598;50.508;10.436;2023-03-11T02:31:14;1.50;99.90
16964;DHT22;8598;50.508;10.436;2023-03-11T02:33:43;1.50;99.90
16964;DHT22;8598;50.508;10.436;2023-03-11T02:36:29;1.50;99.90
16964;DHT22;8598;50.508;10.436;2023-03-11T02:38:55;1.60;99.90
16964;DHT22;8598;50.508;10.436;2023-03-11T02:41:22;1.60;99.90
16964;DHT22;8598;50.508;10.436;2023-03-11T02:43:50;1.60;99.90
16964;DHT22;8598;50.508;10.436;2023-03-11T02:46:18;1.50;99.90
16964;DHT22;8598;50.508;10.436;2023-03-11T02:48:45;1.50;99.90
16964;DHT22;8598;50.508;10.436;2023-03-11T02:51:12;1.50;99.90
16964;DHT22;8598;50.508;10.436;2023-03-11T02:53:43;1.50;99.90
16964;DHT22;8598;50.508;10.436;2023-03-11T02:56:11;1.50;99.90
16964;DHT22;8598;50.508;10.436;2023-03-11T02:58:38;1.50;99.90
16964;DHT22;8598;50.508;10.436;2023-03-11T03:01:06;1.50;99.90
16964;DHT22;8598;50.508;10.436;2023-03-11T03:03:33;1.40;99.90
16964;DHT22;8598;50.508;10.436;2023-03-11T03:05:59;1.50;99.90
16964;DHT22;8598;50.508;10.436;2023-03-11T03:08:26;1.40;99.90
16964;DHT22;8598;50.508;10.436;2023-03-11T03:10:53;1.30;99.90
16964;DHT22;8598;50.508;10.436;2023-03-11T03:13:19;1.20;99.90
16964;DHT22;8598;50.508;10.436;2023-03-11T03:15:46;1.20;99.90
16964;DHT22;8598;50.508;10.436;2023-03-11T03:18:14;1.10;99.90
16964;DHT22;8598;50.508;10.436;2023-03-11T03:20:40;1.00;99.90
16964;DHT22;8598;50.508;10.436;2023-03-11T03:23:07;1.00;99.90
16964;DHT22;8598;50.508;10.436;2023-03-11T03:25:34;0.90;99.90
16964;DHT22;8598;50.508;10.436;2023-03-11T03:28:00;0.80;99.90
16964;DHT22;8598;50.508;10.436;2023-03-11T03:30:27;0.80;99.90
16964;DHT22;8598;50.508;10.436;2023-03-11T03:32:54;0.80;99.90
16964;DHT22;8598;50.508;10.436;2023-03-11T03:35:22;0.80;99.90
16964;DHT22;8598;50.508;10.436;2023-03-11T03:37:49;0.80;99.90
16964;DHT22;8598;50.508;10.436;2023-03-11T03:40:16;1.10;99.90
16964;DHT22;8598;50.508;10.436;2023-03-11T03:42:42;0.90;99.90
16964;DHT22;8598;50.508;10.436;2023-03-11T03:45:10;0.80;99.90
16964;DHT22;8598;50.508;10.436;2023-03-11T03:47:37;0.80;99.90
16964;DHT22;8598;50.508;10.436;2023-03-11T03:50:04;0.80;99.90
16964;DHT22;8598;50.508;10.436;2023-03-11T03:52:33;0.80;99.90
16964;DHT22;8598;50.508;10.436;2023-03-11T03:55:00;0.90;99.90
16964;DHT22;8598;50.508;10.436;2023-03-11T03:57:28;0.80;99.90
16964;DHT22;8598;50.508;10.436;2023-03-11T03:59:54;0.80;99.90
16964;DHT22;8598;50.508;10.436;2023-03-11T04:02:21;0.80;99.90
16964;DHT22;8598;50.508;10.436;2023-03-11T04:04:48;0.80;99.90
16964;DHT22;8598;50.508;10.436;2023-03-11T04:07:15;0.80;99.90
16964;DHT22;8598;50.508;10.436;2023-03-11T04:09:43;0.90;99.90
16964;DHT22;8598;50.508;10.436;2023-03-11T04:12:12;0.90;99.90
16964;DHT22;8598;50.508;10.436;2023-03-11T04:14:39;0.90;99.90
16964;DHT22;8598;50.508;10.436;2023-03-11T04:17:07;0.90;99.90
16964;DHT22;8598;50.508;10.436;2023-03-11T04:19:34;0.90;99.90
16964;DHT22;8598;50.508;10.436;2023-03-11T04:22:00;0.90;99.90
16964;DHT22;8598;50.508;10.436;2023-03-11T04:24:27;0.90;99.90
16964;DHT22;8598;50.508;10.436;2023-03-11T04:26:55;0.90;99.90
16964;DHT22;8598;50.508;10.436;2023-03-11T04:29:21;0.90;99.90
16964;DHT22;8598;50.508;10.436;2023-03-11T04:31:48;0.90;99.90
16964;DHT22;8598;50.508;10.436;2023-03-11T04:34:15;0.90;99.90
16964;DHT22;8598;50.508;10.436;2023-03-11T04:36:41;0.90;99.90
16964;DHT22;8598;50.508;10.436;2023-03-11T04:39:08;0.90;99.90
16964;DHT22;8598;50.508;10.436;2023-03-11T04:41:35;0.80;99.90
16964;DHT22;8598;50.508;10.436;2023-03-11T04:44:03;0.80;99.90
16964;DHT22;8598;50.508;10.436;2023-03-11T04:46:30;0.80;99.90
16964;DHT22;8598;50.508;10.436;2023-03-11T04:48:57;0.90;99.90
16964;DHT22;8598;50.508;10.436;2023-03-11T04:51:23;0.80;99.90
16964;DHT22;8598;50.508;10.436;2023-03-11T04:53:50;0.80;99.90
16964;DHT22;8598;50.508;10.436;2023-03-11T04:56:16;0.80;99.90
16964;DHT22;8598;50.508;10.436;2023-03-11T04:58:43;0.80;99.90
16964;DHT22;8598;50.508;10.436;2023-03-11T05:01:11;0.80;99.90
16964;DHT22;8598;50.508;10.436;2023-03-11T05:03:38;0.70;99.90
16964;DHT22;8598;50.508;10.436;2023-03-11T05:06:04;0.70;99.90
16964;DHT22;8598;50.508;10.436;2023-03-11T05:08:31;0.70;99.90
16964;DHT22;8598;50.508;10.436;2023-03-11T05:10:58;0.70;99.90
16964;DHT22;8598;50.508;10.436;2023-03-11T05:13:24;0.70;99.90
16964;DHT22;8598;50.508;10.436;2023-03-11T05:15:51;0.60;99.90
16964;DHT22;8598;50.508;10.436;2023-03-11T05:18:19;0.60;99.90
16964;DHT22;8598;50.508;10.436;2023-03-11T05:20:46;0.60;99.90
16964;DHT22;8598;50.508;10.436;2023-03-11T05:23:13;0.60;99.90
16964;DHT22;8598;50.508;10.436;2023-03-11T05:25:40;0.70;99.90
16964;DHT22;8598;50.508;10.436;2023-03-11T05:28:06;0.60;99.90
16964;DHT22;8598;50.508;10.436;2023-03-11T05:30:33;0.60;99.90
16964;DHT22;8598;50.508;10.436;2023-03-11T05:33:00;0.60;99.90
16964;DHT22;8598;50.508;10.436;2023-03-11T05:35:27;0.60;99.90
16964;DHT22;8598;50.508;10.436;2023-03-11T05:37:54;0.60;99.90
16964;DHT22;8598;50.508;10.436;2023-03-11T05:40:21;0.60;99.90
16964;DHT22;8598;50.508;10.436;2023-03-11T05:42:47;0.70;99.90
16964;DHT22;8598;50.508;10.436;2023-03-11T05:45:14;0.70;99.90
16964;DHT22;8598;50.508;10.436;2023-03-11T05:47:41;0.60;99.90
16964;DHT22;8598;50.508;10.436;2023-03-11T05:50:09;0.60;99.90
16964;DHT22;8598;50.508;10.436;2023-03-11T05:52:37;0.60;99.90
16964;DHT22;8598;50.508;10.436;2023-03-11T05:55:05;0.60;99.90
16964;DHT22;8598;50.508;10.436;2023-03-11T05:57:34;0.60;99.90
16964;DHT22;8598;50.508;10.436;2023-03-11T06:00:00;0.70;99.90
16964;DHT22;8598;50.508;10.436;2023-03-11T06:02:28;0.70;99.90
16964;DHT22;8598;50.508;10.436;2023-03-11T06:04:55;0.70;99.90
16964;DHT22;8598;50.508;10.436;2023-03-11T06:07:21;0.70;99.90
16964;DHT22;8598;50.508;10.436;2023-03-11T06:09:50;0.70;99.90
16964;DHT22;8598;50.508;10.436;2023-03-11T06:12:17;0.80;99.90
16964;DHT22;8598;50.508;10.436;2023-03-11T06:14:43;0.80;99.90
16964;DHT22;8598;50.508;10.436;2023-03-11T06:17:10;0.80;99.90
16964;DHT22;8598;50.508;10.436;2023-03-11T06:19:37;0.80;99.90
16964;DHT22;8598;50.508;10.436;2023-03-11T06:22:03;0.80;99.90
16964;DHT22;8598;50.508;10.436;2023-03-11T06:24:30;0.90;99.90
16964;DHT22;8598;50.508;10.436;2023-03-11T06:26:58;0.90;99.90
16964;DHT22;8598;50.508;10.436;2023-03-11T06:29:24;0.90;99.90
16964;DHT22;8598;50.508;10.436;2023-03-11T06:31:54;0.90;99.90
16964;DHT22;8598;50.508;10.436;2023-03-11T06:34:21;0.90;99.90
16964;DHT22;8598;50.508;10.436;2023-03-11T06:36:49;1.00;99.90
16964;DHT22;8598;50.508;10.436;2023-03-11T06:39:15;1.00;99.90
16964;DHT22;8598;50.508;10.436;2023-03-11T06:41:42;1.10;99.90
16964;DHT22;8598;50.508;10.436;2023-03-11T06:44:10;1.10;99.90
16964;DHT22;8598;50.508;10.436;2023-03-11T06:46:36;1.10;99.90
16964;DHT22;8598;50.508;10.436;2023-03-11T06:49:03;1.20;99.90
16964;DHT22;8598;50.508;10.436;2023-03-11T06:51:30;1.20;99.90
16964;DHT22;8598;50.508;10.436;2023-03-11T06:53:56;1.30;99.90
16964;DHT22;8598;50.508;10.436;2023-03-11T06:56:23;1.20;99.90
16964;DHT22;8598;50.508;10.436;2023-03-11T06:58:50;1.30;99.90
16964;DHT22;8598;50.508;10.436;2023-03-11T07:01:19;1.20;99.90
16964;DHT22;8598;50.508;10.436;2023-03-11T07:03:47;1.10;99.90
16964;DHT22;8598;50.508;10.436;2023-03-11T07:06:17;1.10;99.90
16964;DHT22;8598;50.508;10.436;2023-03-11T07:08:45;1.00;99.90
16964;DHT22;8598;50.508;10.436;2023-03-11T07:11:13;1.00;99.90
16964;DHT22;8598;50.508;10.436;2023-03-11T07:13:40;1.10;99.90
16964;DHT22;8598;50.508;10.436;2023-03-11T07:16:09;1.50;99.90
16964;DHT22;8598;50.508;10.436;2023-03-11T07:18:38;1.50;99.90
16964;DHT22;8598;50.508;10.436;2023-03-11T07:21:06;1.60;99.90
16964;DHT22;8598;50.508;10.436;2023-03-11T07:23:34;1.60;99.90
16964;DHT22;8598;50.508;10.436;2023-03-11T07:26:01;1.80;99.90
16964;DHT22;8598;50.508;10.436;2023-03-11T07:28:29;2.20;99.90
16964;DHT22;8598;50.508;10.436;2023-03-11T07:30:56;2.60;99.90
16964;DHT22;8598;50.508;10.436;2023-03-11T07:33:23;2.90;99.90
16964;DHT22;8598;50.508;10.436;2023-03-11T07:35:51;2.70;99.90
16964;DHT22;8598;50.508;10.436;2023-03-11T07:38:18;2.50;99.90
16964;DHT22;8598;50.508;10.436;2023-03-11T07:40:45;2.70;99.90
16964;DHT22;8598;50.508;10.436;2023-03-11T07:43:12;3.10;99.90
16964;DHT22;8598;50.508;10.436;2023-03-11T07:45:38;3.80;99.90
16964;DHT22;8598;50.508;10.436;2023-03-11T07:48:05;4.20;99.90
16964;DHT22;8598;50.508;10.436;2023-03-11T07:50:32;5.00;99.90
16964;DHT22;8598;50.508;10.436;2023-03-11T07:53:00;5.60;99.90
16964;DHT22;8598;50.508;10.436;2023-03-11T07:55:26;5.40;99.90
16964;DHT22;8598;50.508;10.436;2023-03-11T07:57:53;5.80;99.90
16964;DHT22;8598;50.508;10.436;2023-03-11T08:00:20;5.50;99.90
16964;DHT22;8598;50.508;10.436;2023-03-11T08:02:47;4.90;99.90
16964;DHT22;8598;50.508;10.436;2023-03-11T08:05:14;3.90;99.90
16964;DHT22;8598;50.508;10.436;2023-03-11T08:07:40;3.30;99.90
16964;DHT22;8598;50.508;10.436;2023-03-11T08:10:10;3.10;99.90
16964;DHT22;8598;50.508;10.436;2023-03-11T08:12:37;2.60;99.90
16964;DHT22;8598;50.508;10.436;2023-03-11T08:15:04;2.20;99.90
16964;DHT22;8598;50.508;10.436;2023-03-11T08:17:31;1.90;99.90
16964;DHT22;8598;50.508;10.436;2023-03-11T08:19:57;2.10;99.90
16964;DHT22;8598;50.508;10.436;2023-03-11T08:22:24;2.20;99.90
16964;DHT22;8598;50.508;10.436;2023-03-11T08:24:51;2.30;99.90
16964;DHT22;8598;50.508;10.436;2023-03-11T08:27:20;2.50;99.90
16964;DHT22;8598;50.508;10.436;2023-03-11T08:29:47;2.00;99.90
16964;DHT22;8598;50.508;10.436;2023-03-11T08:32:13;2.50;99.90
16964;DHT22;8598;50.508;10.436;2023-03-11T08:34:40;2.20;99.90
16964;DHT22;8598;50.508;10.436;2023-03-11T08:37:06;2.50;99.90
16964;DHT22;8598;50.508;10.436;2023-03-11T08:39:33;2.70;99.90
16964;DHT22;8598;50.508;10.436;2023-03-11T08:42:00;2.70;99.90
16964;DHT22;8598;50.508;10.436;2023-03-11T08:44:28;2.90;99.90
16964;DHT22;8598;50.508;10.436;2023-03-11T08:46:55;2.80;99.90
16964;DHT22;8598;50.508;10.436;2023-03-11T08:49:21;2.70;99.90
16964;DHT22;8598;50.508;10.436;2023-03-11T08:51:48;2.70;99.90
16964;DHT22;8598;50.508;10.436;2023-03-11T08:54:15;2.80;99.90
16964;DHT22;8598;50.508;10.436;2023-03-11T08:56:42;2.80;99.90
16964;DHT22;8598;50.508;10.436;2023-03-11T08:59:08;2.40;99.90
16964;DHT22;8598;50.508;10.436;2023-03-11T09:01:36;2.50;99.90
16964;DHT22;8598;50.508;10.436;2023-03-11T09:04:03;2.70;99.90
16964;DHT22;8598;50.508;10.436;2023-03-11T09:06:30;2.50;99.90
16964;DHT22;8598;50.508;10.436;2023-03-11T09:08:57;2.40;99.90
16964;DHT22;8598;50.508;10.436;2023-03-11T09:11:24;2.30;99.90
16964;DHT22;8598;50.508;10.436;2023-03-11T09:13:51;2.50;99.90
16964;DHT22;8598;50.508;10.436;2023-03-11T09:16:19;2.60;99.90
16964;DHT22;8598;50.508;10.436;2023-03-11T09:18:48;2.50;99.90
16964;DHT22;8598;50.508;10.436;2023-03-11T09:21:14;2.50;99.90
16964;DHT22;8598;50.508;10.436;2023-03-11T09:23:41;2.60;99.90
16964;DHT22;8598;50.508;10.436;2023-03-11T09:26:08;2.50;99.90
16964;DHT22;8598;50.508;10.436;2023-03-11T09:28:35;2.20;99.90
16964;DHT22;8598;50.508;10.436;2023-03-11T09:31:01;2.20;99.90
16964;DHT22;8598;50.508;10.436;2023-03-11T09:33:28;2.30;99.90
16964;DHT22;8598;50.508;10.436;2023-03-11T09:35:56;2.30;99.90
16964;DHT22;8598;50.508;10.436;2023-03-11T09:38:23;2.70;99.90
16964;DHT22;8598;50.508;10.436;2023-03-11T09:40:57;2.40;99.90
16964;DHT22;8598;50.508;10.436;2023-03-11T09:43:38;2.30;99.90
16964;DHT22;8598;50.508;10.436;2023-03-11T09:46:25;2.50;99.90
16964;DHT22;8598;50.508;10.436;2023-03-11T09:49:01;2.60;99.90
16964;DHT22;8598;50.508;10.436;2023-03-11T09:51:35;3.00;99.90
16964;DHT22;8598;50.508;10.436;2023-03-11T09:54:05;3.10;99.90
16964;DHT22;8598;50.508;10.436;2023-03-11T09:56:35;3.40;99.90
16964;DHT22;8598;50.508;10.436;2023-03-11T09:59:06;4.00;99.90
16964;DHT22;8598;50.508;10.436;2023-03-11T10:01:35;3.90;99.90
16964;DHT22;8598;50.508;10.436;2023-03-11T10:04:07;3.30;99.90
16964;DHT22;8598;50.508;10.436;2023-03-11T10:06:35;3.20;99.90
16964;DHT22;8598;50.508;10.436;2023-03-11T10:09:10;2.90;99.90
16964;DHT22;8598;50.508;10.436;2023-03-11T10:11:50;3.30;99.90
16964;DHT22;8598;50.508;10.436;2023-03-11T10:14:32;3.90;99.90
16964;DHT22;8598;50.508;10.436;2023-03-11T10:17:09;4.00;99.90
16964;DHT22;8598;50.508;10.436;2023-03-11T10:19:42;3.50;99.90
16964;DHT22;8598;50.508;10.436;2023-03-11T10:22:18;4.00;99.90
16964;DHT22;8598;50.508;10.436;2023-03-11T10:25:00;3.60;99.90
16964;DHT22;8598;50.508;10.436;2023-03-11T10:27:34;3.40;99.90
16964;DHT22;8598;50.508;10.436;2023-03-11T10:30:08;3.40;99.90
16964;DHT22;8598;50.508;10.436;2023-03-11T10:32:40;3.30;99.90
16964;DHT22;8598;50.508;10.436;2023-03-11T10:35:15;3.40;99.90
16964;DHT22;8598;50.508;10.436;2023-03-11T10:37:47;3.60;99.90
16964;DHT22;8598;50.508;10.436;2023-03-11T10:40:20;3.60;99.90
16964;DHT22;8598;50.508;10.436;2023-03-11T10:42:48;3.50;99.90
16964;DHT22;8598;50.508;10.436;2023-03-11T10:45:17;3.80;99.90
16964;DHT22;8598;50.508;10.436;2023-03-11T10:47:45;3.90;99.90
16964;DHT22;8598;50.508;10.436;2023-03-11T10:50:14;3.70;99.90
16964;DHT22;8598;50.508;10.436;2023-03-11T10:53:03;3.80;99.90
16964;DHT22;8598;50.508;10.436;2023-03-11T10:55:31;3.60;99.90
16964;DHT22;8598;50.508;10.436;2023-03-11T10:58:04;3.80;99.90
16964;DHT22;8598;50.508;10.436;2023-03-11T11:00:31;3.50;99.90
16964;DHT22;8598;50.508;10.436;2023-03-11T11:02:58;3.60;99.90
16964;DHT22;8598;50.508;10.436;2023-03-11T11:05:28;3.20;99.90
16964;DHT22;8598;50.508;10.436;2023-03-11T11:08:06;3.00;99.90
16964;DHT22;8598;50.508;10.436;2023-03-11T11:10:34;3.00;99.90
16964;DHT22;8598;50.508;10.436;2023-03-11T11:13:15;3.10;99.90
16964;DHT22;8598;50.508;10.436;2023-03-11T11:15:52;3.30;99.90
16964;DHT22;8598;50.508;10.436;2023-03-11T11:18:22;3.40;99.90
16964;DHT22;8598;50.508;10.436;2023-03-11T11:21:00;3.50;99.90
16964;DHT22;8598;50.508;10.436;2023-03-11T11:23:35;3.60;99.90
16964;DHT22;8598;50.508;10.436;2023-03-11T11:26:04;3.60;99.90
16964;DHT22;8598;50.508;10.436;2023-03-11T11:28:32;3.50;99.90
16964;DHT22;8598;50.508;10.436;2023-03-11T11:31:00;3.60;99.90
16964;DHT22;8598;50.508;10.436;2023-03-11T11:33:29;3.50;99.90
16964;DHT22;8598;50.508;10.436;2023-03-11T11:35:58;3.50;99.90
16964;DHT22;8598;50.508;10.436;2023-03-11T11:38:26;3.60;99.90
16964;DHT22;8598;50.508;10.436;2023-03-11T11:40:57;3.50;99.90
16964;DHT22;8598;50.508;10.436;2023-03-11T11:43:33;3.40;99.90
16964;DHT22;8598;50.508;10.436;2023-03-11T11:46:04;3.30;99.90
16964;DHT22;8598;50.508;10.436;2023-03-11T11:48:34;3.40;99.90
16964;DHT22;8598;50.508;10.436;2023-03-11T11:51:12;3.70;99.90
16964;DHT22;8598;50.508;10.436;2023-03-11T11:53:43;3.90;99.90
16964;DHT22;8598;50.508;10.436;2023-03-11T11:56:13;3.90;99.90
16964;DHT22;8598;50.508;10.436;2023-03-11T11:58:40;3.80;99.90
16964;DHT22;8598;50.508;10.436;2023-03-11T12:01:18;4.00;99.90
16964;DHT22;8598;50.508;10.436;2023-03-11T12:07:00;4.10;99.90
16964;DHT22;8598;50.508;10.436;2023-03-11T12:09:31;4.40;99.90
16964;DHT22;8598;50.508;10.436;2023-03-11T12:12:11;4.20;99.90
16964;DHT22;8598;50.508;10.436;2023-03-11T12:14:45;3.90;99.90
16964;DHT22;8598;50.508;10.436;2023-03-11T12:17:16;3.70;99.90
16964;DHT22;8598;50.508;10.436;2023-03-11T12:19:48;3.70;99.90
16964;DHT22;8598;50.508;10.436;2023-03-11T12:22:32;4.00;99.90
16964;DHT22;8598;50.508;10.436;2023-03-11T12:28:04;4.50;99.90
16964;DHT22;8598;50.508;10.436;2023-03-11T12:30:40;4.00;99.90
16964;DHT22;8598;50.508;10.436;2023-03-11T12:33:13;4.00;99.90
16964;DHT22;8598;50.508;10.436;2023-03-11T12:35:47;4.20;99.90
16964;DHT22;8598;50.508;10.436;2023-03-11T12:38:16;3.90;99.90
16964;DHT22;8598;50.508;10.436;2023-03-11T12:40:57;3.80;99.90
16964;DHT22;8598;50.508;10.436;2023-03-11T12:50:34;3.90;99.90
16964;DHT22;8598;50.508;10.436;2023-03-11T12:52:52;4.00;99.90
16964;DHT22;8598;50.508;10.436;2023-03-11T12:55:31;3.80;99.90
16964;DHT22;8598;50.508;10.436;2023-03-11T13:01:02;3.70;99.90
16964;DHT22;8598;50.508;10.436;2023-03-11T13:03:41;3.60;99.90
16964;DHT22;8598;50.508;10.436;2023-03-11T13:06:20;3.70;99.90
16964;DHT22;8598;50.508;10.436;2023-03-11T13:08:50;3.60;99.90
16964;DHT22;8598;50.508;10.436;2023-03-11T13:11:35;3.60;99.90
16964;DHT22;8598;50.508;10.436;2023-03-11T13:14:18;3.90;99.90
16964;DHT22;8598;50.508;10.436;2023-03-11T13:16:48;4.00;99.90
16964;DHT22;8598;50.508;10.436;2023-03-11T13:19:36;4.00;99.90
16964;DHT22;8598;50.508;10.436;2023-03-11T13:25:31;3.50;99.90
16964;DHT22;8598;50.508;10.436;2023-03-11T13:28:06;3.50;99.90
16964;DHT22;8598;50.508;10.436;2023-03-11T13:30:43;3.50;99.90
16964;DHT22;8598;50.508;10.436;2023-03-11T13:33:24;3.60;99.90
16964;DHT22;8598;50.508;10.436;2023-03-11T13:36:08;3.60;99.90
16964;DHT22;8598;50.508;10.436;2023-03-11T13:41:29;3.30;99.90
16964;DHT22;8598;50.508;10.436;2023-03-11T13:43:59;3.30;99.90
16964;DHT22;8598;50.508;10.436;2023-03-11T13:46:34;3.20;99.90
16964;DHT22;8598;50.508;10.436;2023-03-11T13:49:06;3.20;99.90
16964;DHT22;8598;50.508;10.436;2023-03-11T13:51:39;3.30;99.90
16964;DHT22;8598;50.508;10.436;2023-03-11T13:54:23;3.50;99.90
16964;DHT22;8598;50.508;10.436;2023-03-11T13:56:56;3.60;99.90
16964;DHT22;8598;50.508;10.436;2023-03-11T13:59:24;3.80;99.90
16964;DHT22;8598;50.508;10.436;2023-03-11T14:01:52;3.80;99.90
16964;DHT22;8598;50.508;10.436;2023-03-11T14:04:25;3.80;99.90
16964;DHT22;8598;50.508;10.436;2023-03-11T14:06:53;3.80;99.90
16964;DHT22;8598;50.508;10.436;2023-03-11T14:09:21;3.90;99.90
16964;DHT22;8598;50.508;10.436;2023-03-11T14:11:48;3.80;99.90
16964;DHT22;8598;50.508;10.436;2023-03-11T14:14:31;4.20;99.90
16964;DHT22;8598;50.508;10.436;2023-03-11T14:17:00;3.70;99.90
16964;DHT22;8598;50.508;10.436;2023-03-11T14:19:29;3.60;99.90
16964;DHT22;8598;50.508;10.436;2023-03-11T14:21:56;3.40;99.90
16964;DHT22;8598;50.508;10.436;2023-03-11T14:24:25;3.50;99.90
16964;DHT22;8598;50.508;10.436;2023-03-11T14:26:53;3.50;99.90
16964;DHT22;8598;50.508;10.436;2023-03-11T14:29:26;3.60;99.90
16964;DHT22;8598;50.508;10.436;2023-03-11T14:31:55;3.90;99.90
16964;DHT22;8598;50.508;10.436;2023-03-11T14:34:24;3.70;99.90
16964;DHT22;8598;50.508;10.436;2023-03-11T14:36:55;3.70;99.90
16964;DHT22;8598;50.508;10.436;2023-03-11T14:39:28;3.60;99.90
16964;DHT22;8598;50.508;10.436;2023-03-11T14:42:00;3.70;99.90
16964;DHT22;8598;50.508;10.436;2023-03-11T14:44:30;3.80;99.90
16964;DHT22;8598;50.508;10.436;2023-03-11T14:47:03;3.80;99.90
16964;DHT22;8598;50.508;10.436;2023-03-11T14:49:32;3.90;99.90
16964;DHT22;8598;50.508;10.436;2023-03-11T14:52:04;3.90;99.90
16964;DHT22;8598;50.508;10.436;2023-03-11T14:54:34;3.70;99.90
16964;DHT22;8598;50.508;10.436;2023-03-11T14:57:05;3.80;99.90
16964;DHT22;8598;50.508;10.436;2023-03-11T14:59:34;3.60;99.90
16964;DHT22;8598;50.508;10.436;2023-03-11T15:02:29;3.70;99.90
16964;DHT22;8598;50.508;10.436;2023-03-11T15:04:59;3.70;99.90
16964;DHT22;8598;50.508;10.436;2023-03-11T15:07:29;3.60;99.90
16964;DHT22;8598;50.508;10.436;2023-03-11T15:09:56;3.70;99.90
16964;DHT22;8598;50.508;10.436;2023-03-11T15:12:30;3.70;99.90
16964;DHT22;8598;50.508;10.436;2023-03-11T15:14:58;3.70;99.90
16964;DHT22;8598;50.508;10.436;2023-03-11T15:17:26;3.70;99.90
16964;DHT22;8598;50.508;10.436;2023-03-11T15:19:53;3.70;99.90
16964;DHT22;8598;50.508;10.436;2023-03-11T15:22:24;3.80;99.90
16964;DHT22;8598;50.508;10.436;2023-03-11T15:24:53;3.60;99.90
16964;DHT22;8598;50.508;10.436;2023-03-11T15:27:27;3.70;99.90
16964;DHT22;8598;50.508;10.436;2023-03-11T15:29:55;3.50;99.90
16964;DHT22;8598;50.508;10.436;2023-03-11T15:32:24;3.40;99.90
16964;DHT22;8598;50.508;10.436;2023-03-11T15:34:59;3.40;99.90
16964;DHT22;8598;50.508;10.436;2023-03-11T15:37:26;3.70;99.90
16964;DHT22;8598;50.508;10.436;2023-03-11T15:39:57;3.60;99.90
16964;DHT22;8598;50.508;10.436;2023-03-11T15:42:36;3.60;99.90
16964;DHT22;8598;50.508;10.436;2023-03-11T15:45:10;3.60;99.90
16964;DHT22;8598;50.508;10.436;2023-03-11T15:47:38;3.60;99.90
16964;DHT22;8598;50.508;10.436;2023-03-11T15:50:13;3.50;99.90
16964;DHT22;8598;50.508;10.436;2023-03-11T15:52:39;3.40;99.90
16964;DHT22;8598;50.508;10.436;2023-03-11T15:55:09;3.40;99.90
16964;DHT22;8598;50.508;10.436;2023-03-11T15:57:36;3.40;99.90
16964;DHT22;8598;50.508;10.436;2023-03-11T16:00:04;3.40;99.90
16964;DHT22;8598;50.508;10.436;2023-03-11T16:02:31;3.50;99.90
16964;DHT22;8598;50.508;10.436;2023-03-11T16:04:59;3.50;99.90
16964;DHT22;8598;50.508;10.436;2023-03-11T16:07:26;3.40;99.90
16964;DHT22;8598;50.508;10.436;2023-03-11T16:09:52;3.30;99.90
16964;DHT22;8598;50.508;10.436;2023-03-11T16:12:22;3.20;99.90
16964;DHT22;8598;50.508;10.436;2023-03-11T16:14:49;3.10;99.90
16964;DHT22;8598;50.508;10.436;2023-03-11T16:17:16;3.00;99.90
16964;DHT22;8598;50.508;10.436;2023-03-11T16:19:44;3.00;99.90